Terminal Aerodrome Forecast
Issued by NWS

Home | Current Version | Previous Version | Text Only | Print | Product List | Glossary On
Versions: 1 2 3 4 5 6 7 8 9 10 11 12 13 14 15 16 17 18 19 20 21
000
FTUS41 KBOX 191120
TAFHYA
TAF
KHYA 191120Z 1912/2012 20007KT P6SM FEW006 SCT250
     FM191400 21008KT P6SM SCT250
     FM191700 21011G23KT P6SM FEW250
     FM200700 25008KT P6SM FEW250
     FM201100 29010KT P6SM SKC=

USA.gov is the U.S. government's official web portal to all federal, state and local government web resources and services.